Time;durP1;ratioP1;P1;durP2;ratioP2;P2;SDS_P1;SDS_P2;PMS_P1;PMS_P2;Temp;Humidity;BMP_temperature;BMP_pressure;BME280_temperature;BME280_humidity;BME280_pressure;Samples;Min_cycle;Max_cycle;Signal;HPM_P1;HPM_P2
2024/02/03 00:01:53;;;;;;;6.38;4.07;;;;;;;;;;6171504;23;20515;-76
2024/02/03 00:04:39;;;;;;;7.45;3.50;;;;;;;;;;6150789;23;20017;-76
2024/02/03 00:07:27;;;;;;;8.85;3.80;;;;;;;;;;6193400;23;20021;-76
2024/02/03 00:10:13;;;;;;;7.20;3.90;;;;;;;;;;6171307;23;20516;-77
2024/02/03 00:13:00;;;;;;;8.45;3.83;;;;;;;;;;6170857;23;20017;-77
2024/02/03 00:15:51;;;;;;;5.78;3.58;;;;;;;;;;6186806;23;20021;-76
2024/02/03 00:18:38;;;;;;;7.18;4.03;;;;;;;;;;6171292;23;20021;-76
2024/02/03 00:21:27;;;;;;;6.35;3.53;;;;;;;;;;6170746;23;20021;-77
2024/02/03 00:24:13;;;;;;;7.03;3.92;;;;;;;;;;6150362;23;20017;-76
2024/02/03 00:27:02;;;;;;;7.90;3.75;;;;;;;;;;6194043;23;20025;-76
2024/02/03 00:29:48;;;;;;;7.43;4.28;;;;;;;;;;6150427;23;20017;-76
2024/02/03 00:32:36;;;;;;;6.60;3.92;;;;;;;;;;6171660;23;20021;-76
2024/02/03 00:35:29;;;;;;;7.65;4.05;;;;;;;;;;6150346;23;20335;-76
2024/02/03 00:38:17;;;;;;;5.65;3.15;;;;;;;;;;6172064;23;20020;-76
2024/02/03 00:41:03;;;;;;;6.78;4.32;;;;;;;;;;6171338;23;20013;-76
2024/02/03 00:43:52;;;;;;;6.70;3.55;;;;;;;;;;6150935;23;20025;-77
2024/02/03 00:46:40;;;;;;;7.70;4.53;;;;;;;;;;6183426;23;20021;-76
2024/02/03 00:49:26;;;;;;;6.78;3.88;;;;;;;;;;6193993;23;20017;-76
2024/02/03 00:52:13;;;;;;;6.63;4.18;;;;;;;;;;6171032;23;20465;-77
2024/02/03 00:54:59;;;;;;;7.25;4.10;;;;;;;;;;6171435;23;20330;-77
2024/02/03 00:57:47;;;;;;;6.32;4.13;;;;;;;;;;6171582;23;20017;-76
2024/02/03 01:00:33;;;;;;;5.68;3.15;;;;;;;;;;6193080;23;20020;-76
2024/02/03 01:03:21;;;;;;;6.85;3.88;;;;;;;;;;6194015;23;20025;-76
2024/02/03 01:06:07;;;;;;;7.32;3.95;;;;;;;;;;6170783;23;20021;-76
2024/02/03 01:08:54;;;;;;;6.55;3.80;;;;;;;;;;6171061;23;20017;-76
2024/02/03 01:11:44;;;;;;;8.27;4.50;;;;;;;;;;6171017;23;20014;-76
2024/02/03 01:14:32;;;;;;;5.78;3.35;;;;;;;;;;6186685;23;20456;-76
2024/02/03 01:17:18;;;;;;;5.18;3.50;;;;;;;;;;6150244;23;20017;-76
2024/02/03 01:20:06;;;;;;;5.50;3.38;;;;;;;;;;6170937;23;20469;-76
2024/02/03 01:22:54;;;;;;;7.63;3.72;;;;;;;;;;6150507;23;20024;-76
2024/02/03 01:25:41;;;;;;;7.65;3.90;;;;;;;;;;6171111;23;20021;-76
2024/02/03 01:28:30;;;;;;;8.15;3.83;;;;;;;;;;6193658;23;20335;-76
2024/02/03 01:31:15;;;;;;;5.90;3.75;;;;;;;;;;6170632;23;20013;-76
2024/02/03 01:34:04;;;;;;;8.60;3.80;;;;;;;;;;6171302;23;20021;-76
2024/02/03 01:36:50;;;;;;;6.05;3.30;;;;;;;;;;6170564;23;20326;-76
2024/02/03 01:39:35;;;;;;;6.88;3.90;;;;;;;;;;6150050;23;20021;-76
2024/02/03 01:42:23;;;;;;;5.70;3.08;;;;;;;;;;6149932;23;20025;-76
2024/02/03 01:45:13;;;;;;;6.30;3.35;;;;;;;;;;6171976;23;20021;-76
2024/02/03 01:48:02;;;;;;;6.13;2.80;;;;;;;;;;6170696;23;20501;-76
2024/02/03 01:50:50;;;;;;;7.20;3.90;;;;;;;;;;6171122;23;20013;-76
2024/02/03 01:53:36;;;;;;;6.65;3.50;;;;;;;;;;6170945;23;20013;-76
2024/02/03 01:56:27;;;;;;;7.53;3.35;;;;;;;;;;6170462;23;20020;-76
2024/02/03 01:59:15;;;;;;;5.88;3.55;;;;;;;;;;6171106;23;20021;-76
2024/02/03 02:02:04;;;;;;;5.50;3.17;;;;;;;;;;6150314;23;20025;-76
2024/02/03 02:04:50;;;;;;;6.75;3.50;;;;;;;;;;6171231;23;20021;-77
2024/02/03 02:07:42;;;;;;;6.38;3.53;;;;;;;;;;6170139;23;20017;-76
2024/02/03 02:10:30;;;;;;;4.70;3.25;;;;;;;;;;6193166;23;20021;-77
2024/02/03 02:13:21;;;;;;;7.70;4.03;;;;;;;;;;6170788;23;20021;-77
2024/02/03 02:16:11;;;;;;;4.68;3.00;;;;;;;;;;6151272;23;20021;-77
2024/02/03 02:18:57;;;;;;;5.68;3.10;;;;;;;;;;6172606;23;20021;-77
2024/02/03 02:21:47;;;;;;;6.40;3.10;;;;;;;;;;6151780;23;20021;-77
2024/02/03 02:24:33;;;;;;;7.38;3.17;;;;;;;;;;6151949;23;20021;-77
2024/02/03 02:27:19;;;;;;;6.18;3.40;;;;;;;;;;6164603;23;20330;-77
2024/02/03 02:30:06;;;;;;;5.97;3.10;;;;;;;;;;6172722;23;20017;-76
2024/02/03 02:32:52;;;;;;;5.40;3.28;;;;;;;;;;6151539;23;20025;-76
2024/02/03 02:35:40;;;;;;;7.47;3.95;;;;;;;;;;6173072;23;20021;-76
2024/02/03 02:38:33;;;;;;;5.72;3.13;;;;;;;;;;6151717;23;20021;-76
2024/02/03 02:41:18;;;;;;;5.82;3.80;;;;;;;;;;6151683;23;20798;-76
2024/02/03 02:44:07;;;;;;;7.07;3.47;;;;;;;;;;6172487;23;20024;-76
2024/02/03 02:46:53;;;;;;;6.40;3.30;;;;;;;;;;6151183;23;20462;-76
2024/02/03 02:49:38;;;;;;;7.25;3.88;;;;;;;;;;6151532;23;20465;-76
2024/02/03 02:52:27;;;;;;;6.60;2.92;;;;;;;;;;6151311;23;20021;-76
2024/02/03 02:55:17;;;;;;;5.65;3.75;;;;;;;;;;6194860;23;20021;-76
2024/02/03 02:58:06;;;;;;;5.50;3.17;;;;;;;;;;6151483;23;20017;-77
2024/02/03 03:00:52;;;;;;;5.60;3.05;;;;;;;;;;6151707;23;20334;-77
2024/02/03 03:03:38;;;;;;;6.45;3.30;;;;;;;;;;6150812;23;20346;-76
2024/02/03 03:06:24;;;;;;;8.73;3.60;;;;;;;;;;6171969;23;20021;-76
2024/02/03 03:09:10;;;;;;;5.70;3.40;;;;;;;;;;6151061;23;20016;-76
2024/02/03 03:11:57;;;;;;;4.65;2.78;;;;;;;;;;6151607;23;20013;-76
2024/02/03 03:14:45;;;;;;;6.03;3.58;;;;;;;;;;6211794;22;20459;-74
2024/02/03 03:17:31;;;;;;;6.53;3.38;;;;;;;;;;6201159;23;20020;-74
2024/02/03 03:20:17;;;;;;;5.35;3.28;;;;;;;;;;6180597;23;20025;-74
2024/02/03 03:23:08;;;;;;;6.35;3.47;;;;;;;;;;6202595;23;20323;-74
2024/02/03 03:25:54;;;;;;;6.22;3.20;;;;;;;;;;6180694;23;20025;-74
2024/02/03 03:28:42;;;;;;;6.22;3.30;;;;;;;;;;6202066;23;20017;-74
2024/02/03 03:31:28;;;;;;;5.72;3.40;;;;;;;;;;6201994;23;20017;-74
2024/02/03 03:34:13;;;;;;;6.75;4.05;;;;;;;;;;6201320;23;20024;-74
2024/02/03 03:37:01;;;;;;;8.27;3.35;;;;;;;;;;6201952;23;20025;-74
2024/02/03 03:39:48;;;;;;;7.18;3.40;;;;;;;;;;6201813;23;20020;-74
2024/02/03 03:42:34;;;;;;;7.28;3.17;;;;;;;;;;6201867;23;20013;-74
2024/02/03 03:45:24;;;;;;;6.20;3.45;;;;;;;;;;6181010;23;20020;-74
2024/02/03 03:48:09;;;;;;;5.40;3.13;;;;;;;;;;6201633;23;20020;-75
2024/02/03 03:50:55;;;;;;;6.95;4.05;;;;;;;;;;6201483;23;20322;-75
2024/02/03 03:53:44;;;;;;;6.53;3.42;;;;;;;;;;6202458;23;20024;-75
2024/02/03 03:56:32;;;;;;;6.82;3.67;;;;;;;;;;6198250;23;20024;-75
2024/02/03 03:59:18;;;;;;;6.38;3.70;;;;;;;;;;6201808;23;20016;-75
2024/02/03 04:02:05;;;;;;;7.70;3.70;;;;;;;;;;6180103;23;20016;-75
2024/02/03 04:04:51;;;;;;;5.82;3.53;;;;;;;;;;6201317;23;20326;-75
2024/02/03 04:07:37;;;;;;;9.10;4.10;;;;;;;;;;6215278;23;20020;-75
2024/02/03 04:10:23;;;;;;;7.03;3.80;;;;;;;;;;6201566;23;20393;-75
2024/02/03 04:13:11;;;;;;;5.85;3.67;;;;;;;;;;6184391;23;20024;-75
2024/02/03 04:15:57;;;;;;;5.63;3.47;;;;;;;;;;6210211;22;20020;-75
2024/02/03 04:18:44;;;;;;;8.35;3.63;;;;;;;;;;6231614;23;20024;-75
2024/02/03 04:21:33;;;;;;;7.22;3.72;;;;;;;;;;6253587;23;20333;-75
2024/02/03 04:24:19;;;;;;;5.70;3.33;;;;;;;;;;6231665;23;20020;-75
2024/02/03 04:27:05;;;;;;;6.15;3.13;;;;;;;;;;6225067;23;20020;-75
2024/02/03 04:29:54;;;;;;;8.30;4.40;;;;;;;;;;6210601;23;20020;-75
2024/02/03 04:32:42;;;;;;;6.78;3.15;;;;;;;;;;6253796;23;20020;-75
2024/02/03 04:35:33;;;;;;;9.30;3.97;;;;;;;;;;6253957;23;20020;-75
2024/02/03 04:38:19;;;;;;;9.02;3.83;;;;;;;;;;6231566;23;20453;-75
2024/02/03 04:41:21;;;;;;;6.05;3.47;;;;;;;;;;6231256;23;20318;-75
2024/02/03 04:44:09;;;;;;;6.88;3.75;;;;;;;;;;6231449;23;20325;-75
2024/02/03 04:46:55;;;;;;;8.32;3.80;;;;;;;;;;6247806;22;20020;-75
2024/02/03 04:49:41;;;;;;;8.85;3.95;;;;;;;;;;6231058;23;20020;-75
2024/02/03 04:52:30;;;;;;;8.13;4.00;;;;;;;;;;6252654;23;20012;-75
2024/02/03 04:55:18;;;;;;;7.97;3.78;;;;;;;;;;6231552;23;20443;-75
2024/02/03 04:58:04;;;;;;;7.18;3.92;;;;;;;;;;6209703;23;20024;-75
2024/02/03 05:00:50;;;;;;;8.60;4.35;;;;;;;;;;6210234;23;20020;-75
2024/02/03 05:03:37;;;;;;;5.35;3.45;;;;;;;;;;6253843;23;20020;-75
2024/02/03 05:06:23;;;;;;;7.88;3.42;;;;;;;;;;6231043;23;20016;-75
2024/02/03 05:09:10;;;;;;;6.55;3.40;;;;;;;;;;6254164;23;20322;-75
2024/02/03 05:12:00;;;;;;;8.55;4.20;;;;;;;;;;6210819;23;20322;-75
2024/02/03 05:14:49;;;;;;;7.07;3.78;;;;;;;;;;6231067;23;20020;-75
2024/02/03 05:17:35;;;;;;;8.80;3.95;;;;;;;;;;6209353;23;20024;-75
2024/02/03 05:20:23;;;;;;;9.15;3.83;;;;;;;;;;6231057;23;20020;-75
2024/02/03 05:23:09;;;;;;;7.90;3.72;;;;;;;;;;6230948;23;20012;-75
2024/02/03 05:25:59;;;;;;;8.05;3.38;;;;;;;;;;6231036;22;20020;-75
2024/02/03 05:28:44;;;;;;;6.13;3.10;;;;;;;;;;6253993;23;20024;-75
2024/02/03 05:31:30;;;;;;;7.82;4.03;;;;;;;;;;6230901;23;20016;-75
2024/02/03 05:34:19;;;;;;;7.65;3.65;;;;;;;;;;6231258;23;20020;-75
2024/02/03 05:37:07;;;;;;;6.88;4.07;;;;;;;;;;6230636;23;20020;-75
2024/02/03 05:39:53;;;;;;;8.35;3.95;;;;;;;;;;6253981;23;20464;-75
2024/02/03 05:42:42;;;;;;;8.48;3.72;;;;;;;;;;6231036;23;20012;-75
2024/02/03 05:45:32;;;;;;;6.40;3.33;;;;;;;;;;6251946;23;20020;-75
2024/02/03 05:48:20;;;;;;;7.95;3.35;;;;;;;;;;6255112;23;20020;-75
2024/02/03 05:51:08;;;;;;;6.43;3.47;;;;;;;;;;6233048;23;20020;-75
2024/02/03 05:53:57;;;;;;;7.68;3.75;;;;;;;;;;6233619;23;20016;-75
2024/02/03 05:56:42;;;;;;;7.00;3.22;;;;;;;;;;6232732;23;20020;-75
2024/02/03 05:59:32;;;;;;;7.82;3.72;;;;;;;;;;6232928;23;20016;-75
2024/02/03 06:02:18;;;;;;;5.53;3.17;;;;;;;;;;6255814;23;20016;-75
2024/02/03 06:05:09;;;;;;;5.82;3.30;;;;;;;;;;6233017;23;20020;-75
2024/02/03 06:07:57;;;;;;;7.28;3.08;;;;;;;;;;6245443;22;20020;-75
2024/02/03 06:10:43;;;;;;;8.30;3.53;;;;;;;;;;6232727;23;20020;-75
2024/02/03 06:13:32;;;;;;;6.25;3.40;;;;;;;;;;6252061;23;20020;-75
2024/02/03 06:16:19;;;;;;;5.85;3.17;;;;;;;;;;6250483;22;20460;-75
2024/02/03 06:19:05;;;;;;;5.78;3.15;;;;;;;;;;6211166;23;20024;-75
2024/02/03 06:21:53;;;;;;;7.55;3.40;;;;;;;;;;6232759;23;20460;-75
2024/02/03 06:24:39;;;;;;;6.03;2.97;;;;;;;;;;6254406;23;20457;-75
2024/02/03 06:27:24;;;;;;;5.80;2.80;;;;;;;;;;6232129;23;20020;-75
2024/02/03 06:30:13;;;;;;;7.15;2.88;;;;;;;;;;6255213;23;20020;-75
2024/02/03 06:33:00;;;;;;;6.00;2.70;;;;;;;;;;6232787;23;20016;-75
2024/02/03 06:35:46;;;;;;;5.90;3.25;;;;;;;;;;6232577;22;20416;-75
2024/02/03 06:38:37;;;;;;;4.32;2.35;;;;;;;;;;6211795;23;20020;-75
2024/02/03 06:41:25;;;;;;;4.25;2.55;;;;;;;;;;6255437;23;20024;-75
2024/02/03 06:44:11;;;;;;;4.18;2.10;;;;;;;;;;6255142;23;20016;-75
2024/02/03 06:46:58;;;;;;;4.10;2.20;;;;;;;;;;6248611;22;20020;-75
2024/02/03 06:49:47;;;;;;;3.83;2.05;;;;;;;;;;6230473;23;20016;-75
2024/02/03 06:52:35;;;;;;;3.88;2.30;;;;;;;;;;6254802;23;20020;-75
2024/02/03 06:55:21;;;;;;;5.35;2.00;;;;;;;;;;6210324;23;20020;-75
2024/02/03 09:13:40;;;;;;;3.60;0.98;;;;;;;;;;6231113;22;20013;-76
2024/02/03 09:16:30;;;;;;;2.85;0.70;;;;;;;;;;6170202;23;20044;-76
2024/02/03 09:19:18;;;;;;;2.13;0.95;;;;;;;;;;6170813;23;20021;-76
2024/02/03 09:22:04;;;;;;;1.60;1.00;;;;;;;;;;6170508;23;20025;-77
2024/02/03 09:24:55;;;;;;;1.80;1.08;;;;;;;;;;6170736;23;20485;-76
2024/02/03 09:27:41;;;;;;;1.40;0.88;;;;;;;;;;6161697;23;20025;-76
2024/02/03 09:30:28;;;;;;;1.02;0.70;;;;;;;;;;6192988;23;20025;-76
2024/02/03 09:33:14;;;;;;;0.93;0.60;;;;;;;;;;6149950;23;20017;-77
2024/02/03 09:36:00;;;;;;;2.25;0.82;;;;;;;;;;6149589;23;20021;-77
2024/02/03 09:38:46;;;;;;;1.05;0.60;;;;;;;;;;6193110;23;20021;-77
2024/02/03 09:41:32;;;;;;;2.05;0.80;;;;;;;;;;6171168;23;20025;-77
2024/02/03 09:44:19;;;;;;;0.77;0.63;;;;;;;;;;6149893;23;20017;-77
2024/02/03 09:47:06;;;;;;;1.33;0.70;;;;;;;;;;6149158;23;20462;-77
2024/02/03 09:49:54;;;;;;;1.88;1.02;;;;;;;;;;6170867;23;20465;-77
2024/02/03 09:52:42;;;;;;;1.08;0.70;;;;;;;;;;6170667;23;20021;-77
2024/02/03 09:55:28;;;;;;;1.40;0.60;;;;;;;;;;6171199;23;20021;-78
2024/02/03 09:58:16;;;;;;;0.75;0.40;;;;;;;;;;6150589;23;20020;-77
2024/02/03 10:01:02;;;;;;;1.23;0.82;;;;;;;;;;6170590;23;20021;-76
2024/02/03 10:03:57;;;;;;;0.82;0.50;;;;;;;;;;6171104;23;20017;-76
2024/02/03 10:06:44;;;;;;;1.95;0.85;;;;;;;;;;6149384;23;20021;-76
2024/02/03 10:09:30;;;;;;;1.48;0.80;;;;;;;;;;6193115;23;20327;-76
2024/02/03 10:12:22;;;;;;;1.17;0.70;;;;;;;;;;6149067;23;20671;-77
2024/02/03 10:15:09;;;;;;;1.02;0.55;;;;;;;;;;6179211;23;20013;-77
2024/02/03 10:17:56;;;;;;;0.95;0.50;;;;;;;;;;6178481;23;20021;-77
2024/02/03 10:20:43;;;;;;;0.80;0.40;;;;;;;;;;6200632;23;20025;-77
2024/02/03 10:23:29;;;;;;;1.45;0.70;;;;;;;;;;6223006;23;20012;-77
2024/02/03 10:26:16;;;;;;;0.80;0.47;;;;;;;;;;6179053;23;20024;-77
2024/02/03 10:29:02;;;;;;;1.48;0.65;;;;;;;;;;6179677;23;20024;-77
2024/02/03 10:31:48;;;;;;;1.92;0.88;;;;;;;;;;6221671;23;20024;-76
2024/02/03 10:34:34;;;;;;;0.77;0.55;;;;;;;;;;6178873;23;20024;-77
2024/02/03 10:37:22;;;;;;;1.27;0.60;;;;;;;;;;6201128;23;20024;-76
2024/02/03 10:40:09;;;;;;;2.42;0.80;;;;;;;;;;6181429;23;20020;-76
2024/02/03 10:42:55;;;;;;;1.50;0.70;;;;;;;;;;6202102;23;20020;-76
2024/02/03 10:45:42;;;;;;;1.55;0.70;;;;;;;;;;6181266;23;20020;-76
2024/02/03 10:48:34;;;;;;;0.93;0.60;;;;;;;;;;6203123;23;20020;-76
2024/02/03 10:51:24;;;;;;;1.83;0.70;;;;;;;;;;6202570;23;20021;-76
2024/02/03 10:54:14;;;;;;;1.42;0.65;;;;;;;;;;6224628;23;20017;-76
2024/02/03 10:57:01;;;;;;;0.77;0.70;;;;;;;;;;6180881;23;20016;-76
2024/02/03 10:59:50;;;;;;;1.35;0.70;;;;;;;;;;6201618;23;20021;-76
2024/02/03 11:02:50;;;;;;;2.47;0.80;;;;;;;;;;6202293;23;20017;-76
2024/02/03 11:05:37;;;;;;;0.95;0.70;;;;;;;;;;6202099;23;20017;-77
2024/02/03 11:08:28;;;;;;;1.45;1.08;;;;;;;;;;6224613;23;20020;-77
2024/02/03 11:11:24;;;;;;;2.10;0.82;;;;;;;;;;6201524;23;20488;-77
2024/02/03 11:14:15;;;;;;;1.33;0.63;;;;;;;;;;6180348;23;20017;-77
2024/02/03 11:17:03;;;;;;;1.13;0.60;;;;;;;;;;6180040;23;20017;-76
2024/02/03 11:19:49;;;;;;;1.17;0.60;;;;;;;;;;6201345;23;20016;-76
2024/02/03 11:22:40;;;;;;;2.45;0.80;;;;;;;;;;6224230;23;20024;-76
2024/02/03 11:25:26;;;;;;;2.10;1.00;;;;;;;;;;6223673;23;20013;-76
2024/02/03 11:28:16;;;;;;;1.40;0.63;;;;;;;;;;6181307;23;20024;-76
2024/02/03 11:31:01;;;;;;;2.00;0.65;;;;;;;;;;6179807;23;20024;-76
2024/02/03 11:33:50;;;;;;;1.63;0.90;;;;;;;;;;6180510;23;20012;-76
2024/02/03 11:36:36;;;;;;;1.42;0.90;;;;;;;;;;6201299;23;20039;-76
2024/02/03 11:39:29;;;;;;;1.63;1.00;;;;;;;;;;6201673;23;20021;-76
2024/02/03 11:42:15;;;;;;;2.15;0.90;;;;;;;;;;6223642;23;20021;-77
2024/02/03 11:45:04;;;;;;;2.58;0.57;;;;;;;;;;6201167;23;20013;-77
2024/02/03 11:47:51;;;;;;;3.72;0.90;;;;;;;;;;6192093;23;20021;-77
2024/02/03 11:50:37;;;;;;;1.27;0.70;;;;;;;;;;6200847;23;20025;-77
2024/02/03 11:53:26;;;;;;;2.95;0.80;;;;;;;;;;6180562;23;20021;-77
2024/02/03 11:56:13;;;;;;;1.83;0.82;;;;;;;;;;6179950;23;20482;-76
2024/02/03 11:58:58;;;;;;;2.88;0.82;;;;;;;;;;6223740;23;20017;-77
2024/02/03 12:01:46;;;;;;;1.23;0.65;;;;;;;;;;6202406;23;20350;-76
2024/02/03 12:04:32;;;;;;;1.83;0.75;;;;;;;;;;6201645;23;20013;-75
2024/02/03 12:07:18;;;;;;;1.23;0.52;;;;;;;;;;6179870;23;20024;-76
2024/02/03 12:10:04;;;;;;;2.08;0.80;;;;;;;;;;6180250;23;20029;-76
2024/02/03 12:12:53;;;;;;;3.30;1.13;;;;;;;;;;6222815;23;20021;-77
2024/02/03 12:15:38;;;;;;;1.55;0.90;;;;;;;;;;6179974;23;20013;-76
2024/02/03 12:18:28;;;;;;;3.50;0.98;;;;;;;;;;6180381;23;20025;-76
2024/02/03 12:21:14;;;;;;;2.05;0.70;;;;;;;;;;6200927;23;20025;-76
2024/02/03 12:24:00;;;;;;;2.67;1.05;;;;;;;;;;6179518;23;20322;-77
2024/02/03 12:26:45;;;;;;;1.02;0.47;;;;;;;;;;6179603;23;20021;-76
2024/02/03 12:29:31;;;;;;;1.05;0.55;;;;;;;;;;6223667;23;20024;-76
2024/02/03 12:32:19;;;;;;;2.30;0.65;;;;;;;;;;6223570;23;20016;-77
2024/02/03 12:35:07;;;;;;;1.23;0.70;;;;;;;;;;6179634;23;20365;-76
2024/02/03 12:37:55;;;;;;;0.95;0.63;;;;;;;;;;6200973;23;20020;-76
2024/02/03 12:40:44;;;;;;;1.13;0.70;;;;;;;;;;6223414;23;20469;-76
2024/02/03 12:43:29;;;;;;;1.40;0.98;;;;;;;;;;6222437;23;20020;-76
2024/02/03 12:46:16;;;;;;;2.08;0.80;;;;;;;;;;6178738;23;20021;-75
2024/02/03 12:49:04;;;;;;;1.35;0.80;;;;;;;;;;6179563;23;20028;-76
2024/02/03 12:51:54;;;;;;;2.25;1.00;;;;;;;;;;6200856;23;20021;-76
2024/02/03 12:54:43;;;;;;;1.00;0.70;;;;;;;;;;6179855;23;20016;-76
2024/02/03 12:57:31;;;;;;;1.08;0.77;;;;;;;;;;6191584;23;20338;-76
2024/02/03 13:00:17;;;;;;;1.15;0.80;;;;;;;;;;6200979;23;20020;-76
2024/02/03 13:03:04;;;;;;;1.45;1.05;;;;;;;;;;6200674;23;20021;-76
2024/02/03 13:05:50;;;;;;;2.95;1.08;;;;;;;;;;6200917;23;20012;-76
2024/02/03 13:08:39;;;;;;;1.67;1.15;;;;;;;;;;6179481;23;20021;-77
2024/02/03 13:11:25;;;;;;;1.58;1.23;;;;;;;;;;6223445;23;20016;-77
2024/02/03 13:14:16;;;;;;;1.70;1.30;;;;;;;;;;6180248;23;20013;-77
2024/02/03 13:17:07;;;;;;;3.00;1.77;;;;;;;;;;6179158;23;20020;-77
2024/02/03 13:19:53;;;;;;;2.47;1.33;;;;;;;;;;6201075;23;20310;-77
2024/02/03 13:22:38;;;;;;;2.70;1.35;;;;;;;;;;6179863;23;20021;-77
2024/02/03 13:25:26;;;;;;;2.97;1.50;;;;;;;;;;6223508;23;20469;-77
2024/02/03 13:28:12;;;;;;;3.30;1.90;;;;;;;;;;6197457;23;20346;-76
2024/02/03 13:31:00;;;;;;;4.20;1.80;;;;;;;;;;6199721;23;20017;-77
2024/02/03 13:33:46;;;;;;;2.55;1.60;;;;;;;;;;6222419;23;20020;-76
2024/02/03 13:36:34;;;;;;;1.88;1.30;;;;;;;;;;6177133;23;20016;-76
2024/02/03 13:39:20;;;;;;;3.28;1.35;;;;;;;;;;6199123;23;20021;-77
2024/02/03 13:42:09;;;;;;;3.13;1.60;;;;;;;;;;6199604;23;20016;-77
2024/02/03 13:44:58;;;;;;;1.77;1.23;;;;;;;;;;6200279;23;20013;-76
2024/02/03 13:47:49;;;;;;;2.33;1.50;;;;;;;;;;6199343;23;20024;-76
2024/02/03 13:50:37;;;;;;;2.53;1.10;;;;;;;;;;6201248;23;20021;-77
2024/02/03 13:53:23;;;;;;;1.83;1.27;;;;;;;;;;6222939;23;20314;-77
2024/02/03 13:56:11;;;;;;;2.45;0.90;;;;;;;;;;6197369;23;20445;-77
2024/02/03 13:58:59;;;;;;;1.73;1.10;;;;;;;;;;6178430;23;20020;-77
2024/02/03 14:01:44;;;;;;;1.92;1.20;;;;;;;;;;6179708;23;20024;-77
2024/02/03 14:04:33;;;;;;;1.58;1.00;;;;;;;;;;6200291;23;20504;-77
2024/02/03 14:07:18;;;;;;;1.10;0.80;;;;;;;;;;6178260;23;20020;-77
2024/02/03 14:10:05;;;;;;;0.88;0.80;;;;;;;;;;6201411;23;20024;-77
2024/02/03 14:12:51;;;;;;;1.92;0.95;;;;;;;;;;6180470;23;20465;-77
2024/02/03 14:15:44;;;;;;;1.48;0.85;;;;;;;;;;6179946;23;20020;-77
2024/02/03 14:18:30;;;;;;;2.92;0.80;;;;;;;;;;6201592;23;20017;-77
2024/02/03 14:21:19;;;;;;;2.20;0.93;;;;;;;;;;6201418;23;20017;-77
2024/02/03 14:24:08;;;;;;;0.90;0.70;;;;;;;;;;6180444;23;20021;-77
2024/02/03 14:26:54;;;;;;;1.27;0.85;;;;;;;;;;6179627;23;20445;-77
2024/02/03 14:29:40;;;;;;;0.88;0.60;;;;;;;;;;6201546;23;20426;-76
2024/02/03 14:32:29;;;;;;;1.52;0.73;;;;;;;;;;6201359;23;20020;-76
2024/02/03 14:35:18;;;;;;;0.93;0.70;;;;;;;;;;6223390;23;20013;-76
2024/02/03 14:38:04;;;;;;;0.70;0.40;;;;;;;;;;6179563;23;20020;-76
2024/02/03 14:40:50;;;;;;;0.60;0.40;;;;;;;;;;6224069;23;20017;-76
2024/02/03 14:43:36;;;;;;;1.40;0.70;;;;;;;;;;6180448;23;20021;-76
2024/02/03 14:46:22;;;;;;;1.23;0.80;;;;;;;;;;6197166;23;20012;-76
2024/02/03 14:49:09;;;;;;;1.70;0.80;;;;;;;;;;6223875;23;20024;-76
2024/02/03 14:51:55;;;;;;;1.63;0.68;;;;;;;;;;6200919;23;20021;-77
2024/02/03 14:54:41;;;;;;;1.23;0.80;;;;;;;;;;6224035;23;20020;-77
2024/02/03 14:57:30;;;;;;;1.25;0.47;;;;;;;;;;6214896;23;20017;-77
2024/02/03 15:00:16;;;;;;;1.60;0.90;;;;;;;;;;6180131;23;20021;-77
2024/02/03 15:03:02;;;;;;;1.60;0.70;;;;;;;;;;6201322;23;20020;-77
2024/02/03 15:05:50;;;;;;;0.82;0.65;;;;;;;;;;6179568;23;20017;-77
2024/02/03 15:08:36;;;;;;;1.20;0.77;;;;;;;;;;6199821;23;20334;-77
2024/02/03 15:11:22;;;;;;;1.42;1.00;;;;;;;;;;6200903;23;20334;-77
2024/02/03 15:14:07;;;;;;;0.80;0.60;;;;;;;;;;6217948;23;20020;-76
2024/02/03 15:16:53;;;;;;;1.17;0.60;;;;;;;;;;6179412;23;20016;-77
2024/02/03 15:19:39;;;;;;;1.20;0.80;;;;;;;;;;6200257;23;20020;-77
2024/02/03 15:22:26;;;;;;;2.35;1.08;;;;;;;;;;6179927;23;20028;-77
2024/02/03 15:25:15;;;;;;;1.30;0.70;;;;;;;;;;6180399;23;20620;-77
2024/02/03 15:28:03;;;;;;;1.38;0.77;;;;;;;;;;6179921;23;20358;-77
2024/02/03 15:30:50;;;;;;;2.38;0.63;;;;;;;;;;6179693;23;20025;-76
2024/02/03 15:33:38;;;;;;;2.53;1.02;;;;;;;;;;6200811;23;20020;-76
2024/02/03 15:36:25;;;;;;;3.17;0.90;;;;;;;;;;6179295;23;20016;-76
2024/02/03 15:39:12;;;;;;;2.85;0.80;;;;;;;;;;6200461;23;20021;-76
2024/02/03 15:42:01;;;;;;;1.90;0.88;;;;;;;;;;6220606;23;20024;-82
2024/02/03 15:44:47;;;;;;;2.80;1.02;;;;;;;;;;6219619;23;20673;-82
2024/02/03 17:03:23;;;;;;;;;;;;;;;;;;5088161;28;19920;-62
2024/02/03 17:06:11;;;;;;;;;;;;;;;;;;5070966;28;19935;-63
2024/02/03 17:08:57;;;;;;;;;;;;;;;;;;5046984;28;19952;-63
2024/02/03 17:11:46;;;;;;;;;;;;;;;;;;5068816;28;19932;-63
2024/02/03 17:14:31;;;;;;;;;;;;;;;;;;5069279;28;19932;-63
2024/02/03 17:17:17;;;;;;;;;;;;;;;;;;5060336;28;19935;-63
2024/02/03 17:21:02;;;;;;;;;;;;;;;;;;5074037;28;20386;-63
2024/02/03 17:23:53;;;;;;;;;;;;;;;;;;5065567;28;20373;-63
2024/02/03 17:26:39;;;;;;;;;;;;;;;;;;5066788;28;20002;-63
2024/02/03 17:29:24;;;;;;;;;;;;;;;;;;5050038;28;19932;-63
2024/02/03 17:32:10;;;;;;;;;;;;;;;;;;5060104;28;19931;-63
2024/02/03 17:34:56;;;;;;;;;;;;;;;;;;5050372;28;20439;-63
2024/02/03 17:37:48;;;;;;;;;;;;;;;;;;5066034;28;20398;-63
2024/02/03 17:40:33;;;;;;;;;;;;;;;;;;5071320;28;19947;-63
2024/02/03 17:43:18;;;;;;;;;;;;;;;;;;5068796;28;19931;-63
2024/02/03 17:46:06;;;;;;;;;;;;;;;;;;5067205;28;19932;-63
2024/02/03 17:48:54;;;;;;;;;;;;;;;;;;5076203;28;19931;-63
2024/02/03 17:51:39;;;;;;;;;;;;;;;;;;5071019;28;19932;-63
2024/02/03 17:54:26;;;;;;;;;;;;;;;;;;5067594;28;20438;-63
2024/02/03 17:57:12;;;;;;;;;;;;;;;;;;5061946;28;19936;-63
2024/02/03 17:59:57;;;;;;;;;;;;;;;;;;5056504;28;20015;-63
2024/02/03 18:02:44;;;;;;;;;;;;;;;;;;5073151;28;19944;-63
2024/02/03 18:05:30;;;;;;;;;;;;;;;;;;5050795;28;19932;-63
2024/02/03 18:08:16;;;;;;;;;;;;;;;;;;5072309;28;19932;-63
2024/02/03 18:11:06;;;;;;;;;;;;;;;;;;5061713;28;19932;-63
2024/02/03 18:13:53;;;;;;;;;;;;;;;;;;5058922;28;19943;-63
2024/02/03 18:16:39;;;;;;;;;;;;;;;;;;5066215;28;20314;-63
2024/02/03 18:19:25;;;;;;;;;;;;;;;;;;5070800;28;19932;-63
2024/02/03 18:22:11;;;;;;;;;;;;;;;;;;5061842;28;19936;-63
2024/02/03 18:24:59;;;;;;;;;;;;;;;;;;5059183;28;19932;-63
2024/02/03 18:27:46;;;;;;;;;;;;;;;;;;5066630;28;19947;-63
2024/02/03 18:30:31;;;;;;;;;;;;;;;;;;5051647;28;19936;-63
2024/02/03 18:33:21;;;;;;;;;;;;;;;;;;5058144;28;20410;-63
2024/02/03 18:36:10;;;;;;;;;;;;;;;;;;5054341;28;19936;-63
2024/02/03 18:38:56;;;;;;;;;;;;;;;;;;5058157;28;19932;-63
2024/02/03 18:41:42;;;;;;;;;;;;;;;;;;5056026;28;19940;-63
2024/02/03 18:44:31;;;;;;;;;;;;;;;;;;5053156;28;20405;-63
2024/02/03 18:47:16;;;;;;;;;;;;;;;;;;5045468;28;19932;-63
2024/02/03 18:50:03;;;;;;;;;;;;;;;;;;5053049;28;19936;-63
2024/02/03 18:52:51;;;;;;;;;;;;;;;;;;5052495;28;20409;-63
2024/02/03 18:55:40;;;;;;;;;;;;;;;;;;5054966;28;20434;-63
2024/02/03 18:58:29;;;;;;;;;;;;;;;;;;5052938;28;19931;-63
2024/02/03 19:01:16;;;;;;;;;;;;;;;;;;5049444;28;20047;-63
2024/02/03 19:04:06;;;;;;;;;;;;;;;;;;5046306;28;19932;-63
2024/02/03 19:06:52;;;;;;;;;;;;;;;;;;5055311;28;19940;-63
2024/02/03 19:09:38;;;;;;;;;;;;;;;;;;5054962;28;19931;-63
2024/02/03 19:12:26;;;;;;;;;;;;;;;;;;5051818;28;19947;-63
2024/02/03 19:15:16;;;;;;;;;;;;;;;;;;5047548;28;19932;-63
2024/02/03 19:18:03;;;;;;;;;;;;;;;;;;5055069;28;19966;-63
2024/02/03 19:20:49;;;;;;;;;;;;;;;;;;5051483;28;19940;-63
2024/02/03 19:23:35;;;;;;;;;;;;;;;;;;5055699;28;19940;-63
2024/02/03 19:26:23;;;;;;;;;;;;;;;;;;5057095;28;20390;-63
2024/02/03 19:29:11;;;;;;;;;;;;;;;;;;5052409;28;19936;-63
2024/02/03 19:31:56;;;;;;;;;;;;;;;;;;5055814;28;19951;-63
2024/02/03 19:34:43;;;;;;;;;;;;;;;;;;5039310;28;20299;-63
2024/02/03 19:37:31;;;;;;;;;;;;;;;;;;5052783;28;19939;-63
2024/02/03 19:40:20;;;;;;;;;;;;;;;;;;5053378;28;19932;-63
2024/02/03 19:43:05;;;;;;;;;;;;;;;;;;5052239;28;19932;-63
2024/02/03 19:45:51;;;;;;;;;;;;;;;;;;5053432;28;19952;-63
2024/02/03 19:48:37;;;;;;;;;;;;;;;;;;5050664;28;20310;-66
2024/02/03 19:51:24;;;;;;;;;;;;;;;;;;5052054;28;19932;-63
2024/02/03 19:54:10;;;;;;;;;;;;;;;;;;5071200;28;20429;-63
2024/02/03 19:56:58;;;;;;;;;;;;;;;;;;5051881;28;19959;-63
2024/02/03 19:59:44;;;;;;;;;;;;;;;;;;5052650;28;19932;-63
2024/02/03 20:02:30;;;;;;;;;;;;;;;;;;5051000;28;19940;-63
2024/02/03 20:05:18;;;;;;;;;;;;;;;;;;5045766;28;19951;-63
2024/02/03 20:08:06;;;;;;;;;;;;;;;;;;5044561;28;19948;-63
2024/02/03 20:10:54;;;;;;;;;;;;;;;;;;5051505;28;19931;-63
2024/02/03 20:13:40;;;;;;;;;;;;;;;;;;5042483;28;19932;-63
2024/02/03 20:16:26;;;;;;;;;;;;;;;;;;5051944;28;20402;-63
2024/02/03 20:19:12;;;;;;;;;;;;;;;;;;5063313;28;19947;-63
2024/02/03 20:21:58;;;;;;;;;;;;;;;;;;5046367;28;19932;-63
2024/02/03 20:24:45;;;;;;;;;;;;;;;;;;5055610;28;19931;-63
2024/02/03 20:27:30;;;;;;;;;;;;;;;;;;5056698;28;19947;-63
2024/02/03 20:30:16;;;;;;;;;;;;;;;;;;5054882;28;19931;-63
2024/02/03 20:33:06;;;;;;;;;;;;;;;;;;5074657;28;19931;-63
2024/02/03 20:35:52;;;;;;;;;;;;;;;;;;5059790;28;20413;-63
2024/02/03 20:38:37;;;;;;;;;;;;;;;;;;5071977;28;19931;-63
2024/02/03 20:41:24;;;;;;;;;;;;;;;;;;5052121;28;19931;-63
2024/02/03 20:44:10;;;;;;;;;;;;;;;;;;5048837;28;19931;-63